Zebulon, NC (27597)

6:17 AM EDT on September 30, 2014 (GMT -0400)
Lizard Lick / Glory Rd NC | Change Station
CLOSE
Current Station
Personal Weather Station
Location: Wendell, NC
Elevation: 278 ft
Nearby Weather Stations
Active Advisory: Dense Fog Advisory

Elev 278 ft 35.86 °N, 78.37 °W | Updated 0 second ago

Fog
Fog
61.0 °F
Feels Like 61.0 °F
N
0.0
Wind Variable Wind from WNW
Gusts 0.0 mph

Today
High -- | Low -- °F
--% Chance of Precip.
Yesterday
High -- | Low -- °F
Precip. -- in
7:07 AM 6:58 PM
Waxing Crescent, 35% visible
Pressure 29.93 in
Visibility 0.5 miles
Clouds Overcast 100 ft
Dew Point 61 °F
Humidity 99%
Rainfall 0.00 in
Snow Depth Not available.
UV 0 out of 12
Pollen 3.20 out of 12
PM2.5 Good
Flu Activity Not available.
METAR KLHZ 300955Z AUTO 00000KT 1/2SM FG OVC001 16/16 A2993 RMK AO2

More Conditions Fewer Conditions

Pressure 29.93 in
Visibility 0.5 miles
Clouds Overcast 100 ft
Dew Point 61 °F
Humidity 99%
Rainfall 0.00 in
Snow Depth Not available.
UV 0 out of 12
Pollen 3.20 out of 12
PM2.5 Good
Flu Activity Not available.
METAR KLHZ 300955Z AUTO 00000KT 1/2SM FG OVC001 16/16 A2993 RMK AO2

More Conditions Fewer Conditions

10-Day Weather Forecast

Almanac

Astronomy

Sep. 30, 2014 Rise Set
Actual Time 7:07 AM EDT 6:58 PM EDT
Civil Twilight 6:42 AM EDT 7:23 PM EDT
Nautical Twilight 6:12 AM EDT 7:53 PM EDT
Astronomical Twilight 5:42 AM EDT 8:23 PM EDT
Moon 1:05 PM EDT 11:35 PM EDT
Length of Visible Light 12h 41m
Length of Day
11h 50m
Tomorrow will be 2m 15s shorter.
Waxing Crescent, 35% of the Moon is Illuminated
Today
Waxing Crescent
Oct 1
First Quarter
Oct 8
Full
Oct 15
Last Quarter
Oct 23
New

Today's Extremes

State Highs State Lows

Community

WunderPhotos

Upload Photos

1,757,608 photos uploaded!

WunderBlogs® & News

Nearby

Air Quality

  Air Quality AQ Index Pollutant
Yesterday Good
PM2.5
Yesterday Good
OZONE
Current Good
PM2.5
Tuesday Good
PM2.5
Tuesday Good
OZONE
Wednesday Good
PM2.5
Wednesday Good
OZONE
Thursday Moderate
PM2.5
Thursday Moderate
OZONE

Snow Depth

Station Depth Elevation
No new snow has been reported.

Earthquake Activity

City Distance Mag. Time & Date
No recent earthquake activity has been reported nearby.
Minimum magnitude displayed is 2.5.

Coastal Water Temperatures

Place Temperature
No Stations Reporting

Nearby Weather Stations